createdAt,value
2018-09-23T00:01:02.342Z,24.02
2018-09-23T00:03:30.104Z,24.02
2018-09-23T00:05:57.842Z,24.02
2018-09-23T00:08:25.574Z,24.02
2018-09-23T00:10:53.238Z,24.02
2018-09-23T00:13:20.969Z,24.01
2018-09-23T00:15:48.854Z,24.00
2018-09-23T00:18:16.602Z,24.00
2018-09-23T00:20:44.323Z,23.99
2018-09-23T00:23:12.095Z,24.00
2018-09-23T00:25:39.793Z,23.98
2018-09-23T00:28:07.471Z,23.98
2018-09-23T00:30:35.187Z,23.99
2018-09-23T00:33:02.898Z,23.98
2018-09-23T00:35:30.610Z,23.98
2018-09-23T00:37:58.381Z,23.97
2018-09-23T00:40:26.125Z,23.97
2018-09-23T00:42:53.797Z,23.96
2018-09-23T00:45:21.482Z,23.96
2018-09-23T00:47:49.213Z,23.96
2018-09-23T00:50:16.909Z,23.94
2018-09-23T00:52:44.644Z,23.93
2018-09-23T00:55:12.391Z,23.94
2018-09-23T00:57:40.126Z,23.95
2018-09-23T01:00:08.042Z,23.93
2018-09-23T01:02:35.857Z,23.93
2018-09-23T01:05:03.583Z,23.93
2018-09-23T01:07:31.322Z,23.93
2018-09-23T01:09:58.981Z,23.94
2018-09-23T01:12:26.743Z,23.94
2018-09-23T01:14:54.535Z,23.93
2018-09-23T01:17:22.235Z,23.93
2018-09-23T01:19:49.957Z,23.92
2018-09-23T01:22:17.673Z,23.91
2018-09-23T01:24:45.344Z,23.92
2018-09-23T01:27:13.191Z,23.92
2018-09-23T01:29:41.530Z,23.92
2018-09-23T01:32:09.221Z,23.90
2018-09-23T01:34:36.917Z,23.90
2018-09-23T01:37:04.553Z,23.89
2018-09-23T01:39:32.232Z,23.89
2018-09-23T01:41:59.910Z,23.89
2018-09-23T01:44:27.579Z,23.90
2018-09-23T01:46:55.400Z,23.89
2018-09-23T01:49:23.130Z,23.90
2018-09-23T01:51:50.840Z,23.90
2018-09-23T01:54:18.538Z,23.89
2018-09-23T01:56:46.235Z,23.89
2018-09-23T01:59:13.938Z,23.88
2018-09-23T02:01:41.746Z,23.88
2018-09-23T02:04:09.476Z,23.87
2018-09-23T02:06:37.229Z,23.87
2018-09-23T02:09:06.059Z,23.86
2018-09-23T02:11:33.768Z,23.86
2018-09-23T02:14:01.506Z,23.85
2018-09-23T02:16:29.183Z,23.85
2018-09-23T02:18:56.916Z,23.84
2018-09-23T02:21:24.709Z,23.84
2018-09-23T02:23:52.424Z,23.84
2018-09-23T02:26:20.127Z,23.84
2018-09-23T02:28:47.833Z,23.83
2018-09-23T02:31:15.554Z,23.83
2018-09-23T02:33:43.306Z,23.81
2018-09-23T02:36:11.058Z,23.81
2018-09-23T02:38:38.860Z,23.81
2018-09-23T02:41:06.650Z,23.80
2018-09-23T02:43:34.427Z,23.80
2018-09-23T02:46:02.407Z,23.81
2018-09-23T02:48:30.146Z,23.80
2018-09-23T02:50:57.925Z,23.79
2018-09-23T02:53:25.678Z,23.79
2018-09-23T02:55:53.502Z,23.78
2018-09-23T02:58:21.297Z,23.78
2018-09-23T03:00:49.246Z,23.78
2018-09-23T03:03:17.033Z,23.78
2018-09-23T03:05:44.982Z,23.78
2018-09-23T03:08:12.785Z,23.78
2018-09-23T03:10:40.567Z,23.77
2018-09-23T03:13:08.294Z,23.76
2018-09-23T03:15:36.170Z,23.76
2018-09-23T03:18:03.945Z,23.75
2018-09-23T03:20:31.683Z,23.75
2018-09-23T03:22:59.458Z,23.75
2018-09-23T03:25:27.244Z,23.74
2018-09-23T03:27:54.924Z,23.75
2018-09-23T03:30:22.710Z,23.75
2018-09-23T03:32:50.417Z,23.74
2018-09-23T03:35:18.235Z,23.74
2018-09-23T03:37:45.921Z,23.74
2018-09-23T03:40:13.654Z,23.74
2018-09-23T03:42:41.609Z,23.73
2018-09-23T03:45:09.321Z,23.73
2018-09-23T03:47:37.074Z,23.73
2018-09-23T03:50:04.897Z,23.73
2018-09-23T03:52:32.630Z,23.73
2018-09-23T03:55:00.362Z,23.72
2018-09-23T03:57:28.178Z,23.73
2018-09-23T03:59:55.933Z,23.72
2018-09-23T04:02:23.653Z,23.73
2018-09-23T04:04:51.342Z,23.72
2018-09-23T04:07:19.102Z,23.71
2018-09-23T04:09:46.789Z,23.70
2018-09-23T04:12:14.515Z,23.70
2018-09-23T04:14:42.174Z,23.69
2018-09-23T04:17:09.894Z,23.70
2018-09-23T04:19:37.605Z,23.69
2018-09-23T04:22:05.312Z,23.70
2018-09-23T04:24:33.033Z,23.69
2018-09-23T04:27:00.739Z,23.70
2018-09-23T04:29:28.535Z,23.68
2018-09-23T04:31:56.255Z,23.68
2018-09-23T04:34:23.937Z,23.69
2018-09-23T04:36:51.659Z,23.67
2018-09-23T04:39:19.409Z,23.67
2018-09-23T04:41:47.160Z,23.68
2018-09-23T04:44:14.852Z,23.68
2018-09-23T04:46:42.581Z,23.67
2018-09-23T04:49:10.334Z,23.67
2018-09-23T04:51:38.093Z,23.66
2018-09-23T04:54:06.123Z,23.66
2018-09-23T04:56:33.846Z,23.66
2018-09-23T04:59:01.598Z,23.66
2018-09-23T05:01:29.277Z,23.66
2018-09-23T05:03:56.957Z,23.64
2018-09-23T05:06:24.649Z,23.65
2018-09-23T05:08:52.384Z,23.66
2018-09-23T05:11:20.123Z,23.65
2018-09-23T05:13:47.889Z,23.66
2018-09-23T05:16:15.719Z,23.64
2018-09-23T05:18:43.503Z,23.64
2018-09-23T05:21:11.226Z,23.64
2018-09-23T05:23:38.978Z,23.63
2018-09-23T05:26:07.026Z,23.64
2018-09-23T05:28:34.884Z,23.63
2018-09-23T05:31:02.640Z,23.64
2018-09-23T05:33:30.341Z,23.62
2018-09-23T05:35:58.137Z,23.64
2018-09-23T05:38:25.853Z,23.62
2018-09-23T05:40:53.517Z,23.63
2018-09-23T05:43:21.292Z,23.61
2018-09-23T05:45:48.975Z,23.62
2018-09-23T05:48:16.725Z,23.62
2018-09-23T05:50:44.420Z,23.61
2018-09-23T05:53:12.251Z,23.61
2018-09-23T05:55:39.936Z,23.60
2018-09-23T05:58:07.938Z,23.61
2018-09-23T06:00:38.611Z,23.59
2018-09-23T06:03:06.285Z,23.62
2018-09-23T06:05:34.036Z,23.60
2018-09-23T06:08:01.713Z,23.60
2018-09-23T06:10:29.383Z,23.58
2018-09-23T06:12:57.095Z,23.59
2018-09-23T06:15:24.852Z,23.59
2018-09-23T06:17:52.595Z,23.60
2018-09-23T06:20:20.381Z,23.58
2018-09-23T06:22:48.093Z,23.58
2018-09-23T06:25:15.841Z,23.57
2018-09-23T06:27:43.582Z,23.57
2018-09-23T06:30:11.356Z,23.58
2018-09-23T06:32:39.161Z,23.58
2018-09-23T06:35:06.920Z,23.57
2018-09-23T06:37:34.737Z,23.57
2018-09-23T06:40:02.409Z,23.57
2018-09-23T06:42:30.210Z,23.57
2018-09-23T06:44:57.886Z,23.57
2018-09-23T06:47:25.701Z,23.57
2018-09-23T06:49:53.478Z,23.56
2018-09-23T06:52:21.145Z,23.56
2018-09-23T06:54:48.900Z,23.55
2018-09-23T06:57:16.726Z,23.55
2018-09-23T06:59:44.353Z,23.55
2018-09-23T07:02:12.052Z,23.55
2018-09-23T07:04:39.919Z,23.54
2018-09-23T07:07:07.590Z,23.55
2018-09-23T07:09:35.316Z,23.55
2018-09-23T07:12:03.139Z,23.55
2018-09-23T07:14:30.955Z,23.54
2018-09-23T07:16:58.721Z,23.55
2018-09-23T07:19:26.490Z,23.53
2018-09-23T07:21:54.205Z,23.54
2018-09-23T07:24:21.917Z,23.54
2018-09-23T07:26:49.673Z,23.53
2018-09-23T07:29:17.474Z,23.52
2018-09-23T07:31:45.274Z,23.52
2018-09-23T07:34:13.090Z,23.52
2018-09-23T07:36:40.978Z,23.53
2018-09-23T07:39:09.671Z,23.52
2018-09-23T07:41:37.299Z,23.51
2018-09-23T07:44:05.010Z,23.53
2018-09-23T07:46:32.653Z,23.53
2018-09-23T07:49:00.278Z,23.54
2018-09-23T07:51:27.925Z,23.55
2018-09-23T07:53:55.576Z,23.54
2018-09-23T07:56:23.270Z,23.54
2018-09-23T07:58:50.897Z,23.55
2018-09-23T08:01:18.513Z,23.55
2018-09-23T08:03:46.133Z,23.54
2018-09-23T08:06:13.753Z,23.55
2018-09-23T08:08:41.389Z,23.55
2018-09-23T08:11:09.034Z,23.56
2018-09-23T08:13:36.835Z,23.55
2018-09-23T08:16:04.332Z,23.56
2018-09-23T08:18:31.944Z,23.56
2018-09-23T08:20:59.584Z,23.56
2018-09-23T08:23:27.223Z,23.58
2018-09-23T08:25:54.865Z,23.57
2018-09-23T08:28:22.511Z,23.57
2018-09-23T08:30:50.217Z,23.57
2018-09-23T08:33:17.890Z,23.57
2018-09-23T08:35:45.516Z,23.57
2018-09-23T08:38:13.121Z,23.58
2018-09-23T08:40:40.744Z,23.58
2018-09-23T08:43:08.386Z,23.58
2018-09-23T08:45:36.015Z,23.61
2018-09-23T08:48:03.718Z,23.60
2018-09-23T08:50:31.305Z,23.60
2018-09-23T08:52:58.925Z,23.59
2018-09-23T08:55:26.544Z,23.58
2018-09-23T08:57:54.175Z,23.58
2018-09-23T09:00:21.791Z,23.59
2018-09-23T09:02:49.413Z,23.61
2018-09-23T09:05:17.035Z,23.20
2018-09-23T09:07:44.701Z,23.59
2018-09-23T09:10:12.326Z,23.59
2018-09-23T09:12:39.950Z,23.60
2018-09-23T09:15:07.650Z,23.61
2018-09-23T09:17:35.328Z,23.62
2018-09-23T09:20:03.141Z,23.62
2018-09-23T09:22:30.944Z,23.62
2018-09-23T09:24:58.743Z,23.62
2018-09-23T09:27:26.468Z,23.61
2018-09-23T09:29:54.167Z,23.62
2018-09-23T09:32:21.940Z,23.61
2018-09-23T09:34:49.696Z,23.61
2018-09-23T09:37:17.438Z,23.60
2018-09-23T09:39:45.181Z,23.62
2018-09-23T09:42:12.904Z,23.64
2018-09-23T09:44:40.703Z,23.63
2018-09-23T09:47:08.488Z,23.62
2018-09-23T09:49:36.226Z,23.62
2018-09-23T09:52:03.966Z,23.61
2018-09-23T09:54:31.742Z,23.62
2018-09-23T09:56:59.477Z,23.63
2018-09-23T09:59:27.250Z,23.64
2018-09-23T10:01:54.988Z,23.63
2018-09-23T10:04:22.739Z,23.63
2018-09-23T10:06:50.445Z,23.63
2018-09-23T10:09:18.287Z,23.62
2018-09-23T10:11:46.129Z,23.63
2018-09-23T10:14:14.033Z,23.65
2018-09-23T10:16:41.790Z,23.63
2018-09-23T10:19:09.578Z,23.63
2018-09-23T10:21:37.355Z,23.64
2018-09-23T10:24:05.377Z,23.62
2018-09-23T10:26:33.063Z,23.63
2018-09-23T10:29:00.950Z,23.63
2018-09-23T10:31:28.841Z,23.63
2018-09-23T10:33:56.510Z,23.62
2018-09-23T10:36:24.212Z,23.60
2018-09-23T10:38:51.904Z,23.61
2018-09-23T10:41:19.825Z,23.61
2018-09-23T10:43:47.652Z,23.61
2018-09-23T10:46:15.489Z,23.61
2018-09-23T10:48:44.305Z,23.62
2018-09-23T10:51:12.234Z,23.61
2018-09-23T10:53:39.966Z,23.61
2018-09-23T10:56:07.753Z,23.61
2018-09-23T10:58:35.411Z,23.61
2018-09-23T11:01:03.111Z,23.63
2018-09-23T11:03:30.869Z,23.61
2018-09-23T11:05:58.674Z,23.61
2018-09-23T11:08:26.353Z,23.64
2018-09-23T11:10:54.091Z,23.66
2018-09-23T11:13:21.808Z,23.65
2018-09-23T11:15:49.514Z,23.66
2018-09-23T11:18:17.282Z,23.70
2018-09-23T11:20:45.030Z,23.70
2018-09-23T11:23:12.869Z,23.68
2018-09-23T11:25:40.590Z,23.68
2018-09-23T11:28:08.261Z,23.69
2018-09-23T11:30:36.012Z,23.72
2018-09-23T11:33:03.737Z,23.77
2018-09-23T11:35:31.536Z,23.78
2018-09-23T11:37:59.269Z,23.77
2018-09-23T11:40:26.969Z,23.80
2018-09-23T11:42:54.674Z,23.84
2018-09-23T11:45:22.434Z,23.86
2018-09-23T11:47:50.166Z,23.93
2018-09-23T11:50:17.823Z,23.91
2018-09-23T11:52:45.567Z,23.87
2018-09-23T11:55:13.251Z,23.87
2018-09-23T11:57:41.003Z,23.87
2018-09-23T12:00:08.713Z,23.85
2018-09-23T12:02:36.425Z,23.87
2018-09-23T12:05:04.163Z,23.88
2018-09-23T12:07:31.821Z,23.84
2018-09-23T12:09:59.597Z,23.89
2018-09-23T12:12:27.330Z,23.90
2018-09-23T12:14:56.476Z,23.95
2018-09-23T12:17:24.187Z,23.88
2018-09-23T12:19:51.863Z,23.93
2018-09-23T12:22:19.927Z,23.89
2018-09-23T12:24:48.343Z,23.93
2018-09-23T12:27:16.037Z,23.88
2018-09-23T12:29:43.837Z,23.88
2018-09-23T12:32:11.532Z,23.87
2018-09-23T12:34:39.249Z,23.88
2018-09-23T12:37:06.960Z,23.89
2018-09-23T12:39:34.727Z,23.90
2018-09-23T12:42:03.224Z,23.90
2018-09-23T12:44:30.947Z,23.94
2018-09-23T12:46:58.833Z,23.93
2018-09-23T12:49:27.207Z,23.96
2018-09-23T12:51:54.938Z,23.91
2018-09-23T12:54:22.937Z,23.97
2018-09-23T12:56:50.627Z,23.95
2018-09-23T12:59:18.322Z,23.93
2018-09-23T13:01:46.051Z,23.94
2018-09-23T13:04:13.783Z,23.98
2018-09-23T13:06:41.495Z,23.97
2018-09-23T13:09:09.245Z,23.93
2018-09-23T13:11:37.015Z,23.93
2018-09-23T13:14:04.855Z,23.90
2018-09-23T13:16:32.662Z,23.90
2018-09-23T13:19:00.430Z,23.88
2018-09-23T13:21:28.203Z,23.87
2018-09-23T13:23:55.960Z,23.86
2018-09-23T13:26:23.631Z,23.87
2018-09-23T13:28:51.340Z,23.86
2018-09-23T13:31:19.317Z,23.87
2018-09-23T13:33:47.022Z,23.87
2018-09-23T13:36:27.521Z,23.88
2018-09-23T13:38:55.308Z,23.88
2018-09-23T13:41:23.038Z,23.89
2018-09-23T13:43:50.754Z,23.88
2018-09-23T13:46:18.517Z,23.88
2018-09-23T13:48:46.249Z,23.88
2018-09-23T13:51:14.044Z,23.89
2018-09-23T13:53:41.874Z,23.89
2018-09-23T13:56:09.682Z,23.91
2018-09-23T13:58:37.516Z,23.98
2018-09-23T14:01:05.374Z,24.00
2018-09-23T14:03:33.120Z,24.07
2018-09-23T14:06:00.838Z,24.04
2018-09-23T14:08:28.800Z,23.87
2018-09-23T14:10:56.620Z,24.04
2018-09-23T14:13:24.524Z,23.96
2018-09-23T14:15:52.842Z,24.06
2018-09-23T14:18:20.647Z,24.00
2018-09-23T14:20:48.467Z,23.96
2018-09-23T14:23:16.209Z,23.97
2018-09-23T14:25:43.861Z,23.97
2018-09-23T14:28:11.501Z,23.97
2018-09-23T14:30:39.145Z,23.96
2018-09-23T14:33:07.054Z,23.96
2018-09-23T14:35:34.724Z,24.00
2018-09-23T14:38:02.360Z,23.97
2018-09-23T14:40:30.013Z,24.05
2018-09-23T14:42:57.651Z,24.06
2018-09-23T14:45:25.282Z,24.09
2018-09-23T14:47:52.928Z,24.04
2018-09-23T14:50:20.601Z,24.04
2018-09-23T14:52:48.297Z,24.12
2018-09-23T14:55:16.042Z,24.12
2018-09-23T14:57:43.618Z,24.23
2018-09-23T15:00:11.302Z,24.25
2018-09-23T15:02:38.970Z,24.19
2018-09-23T15:05:06.693Z,24.12
2018-09-23T15:07:34.354Z,24.10
2018-09-23T15:10:02.034Z,24.13
2018-09-23T15:12:29.674Z,24.16
2018-09-23T15:14:57.342Z,24.16
2018-09-23T15:17:24.960Z,24.19
2018-09-23T15:19:52.593Z,24.14
2018-09-23T15:22:20.227Z,24.11
2018-09-23T15:24:47.901Z,24.09
2018-09-23T15:27:15.613Z,24.09
2018-09-23T15:29:43.301Z,24.14
2018-09-23T15:32:11.219Z,24.08
2018-09-23T15:34:38.886Z,24.05
2018-09-23T15:37:06.532Z,24.11
2018-09-23T15:39:34.182Z,24.13
2018-09-23T15:42:01.847Z,24.12
2018-09-23T15:44:29.561Z,24.12
2018-09-23T15:46:57.205Z,24.11
2018-09-23T15:49:24.925Z,24.06
2018-09-23T15:51:52.677Z,24.03
2018-09-23T15:54:20.313Z,24.07
2018-09-23T15:56:47.986Z,24.07
2018-09-23T15:59:15.691Z,24.04
2018-09-23T16:01:43.363Z,24.02
2018-09-23T16:04:11.102Z,24.00
2018-09-23T16:06:38.830Z,23.99
2018-09-23T16:09:07.461Z,23.99
2018-09-23T16:11:35.114Z,23.98
2018-09-23T16:14:02.771Z,23.99
2018-09-23T16:16:30.452Z,23.99
2018-09-23T16:18:58.137Z,23.99
2018-09-23T16:21:25.810Z,24.01
2018-09-23T16:23:53.475Z,24.00
2018-09-23T16:26:21.206Z,23.97
2018-09-23T16:28:48.868Z,23.98
2018-09-23T16:31:16.557Z,23.98
2018-09-23T16:33:44.223Z,24.00
2018-09-23T16:36:11.922Z,23.99
2018-09-23T16:38:39.574Z,23.98
2018-09-23T16:41:07.244Z,23.95
2018-09-23T16:43:35.004Z,23.97
2018-09-23T16:46:02.675Z,23.96
2018-09-23T16:48:30.340Z,23.95
2018-09-23T16:50:58.076Z,23.96
2018-09-23T16:53:25.730Z,23.94
2018-09-23T16:55:53.442Z,23.93
2018-09-23T16:58:21.208Z,23.93
2018-09-23T17:00:49.215Z,23.93
2018-09-23T17:03:16.741Z,23.93
2018-09-23T17:05:44.395Z,23.95
2018-09-23T17:08:12.353Z,23.93
2018-09-23T17:10:40.048Z,23.92
2018-09-23T17:13:07.694Z,23.93
2018-09-23T17:15:35.444Z,23.92
2018-09-23T17:18:03.188Z,23.90
2018-09-23T17:20:30.808Z,23.92
2018-09-23T17:22:58.449Z,23.91
2018-09-23T17:25:26.111Z,23.88
2018-09-23T17:27:54.531Z,23.89
2018-09-23T17:30:22.319Z,23.90
2018-09-23T17:32:49.987Z,23.65
2018-09-23T17:35:17.661Z,23.88
2018-09-23T17:37:45.333Z,23.88
2018-09-23T17:40:13.006Z,23.87
2018-09-23T17:42:40.711Z,23.87
2018-09-23T17:45:08.343Z,23.87
2018-09-23T17:47:35.998Z,23.88
2018-09-23T17:50:04.000Z,23.92
2018-09-23T17:52:31.712Z,23.91
2018-09-23T17:54:59.384Z,23.89
2018-09-23T17:57:27.101Z,23.91
2018-09-23T17:59:54.868Z,23.88
2018-09-23T18:02:22.525Z,23.88
2018-09-23T18:04:50.179Z,23.88
2018-09-23T18:07:17.849Z,23.87
2018-09-23T18:09:45.544Z,23.87
2018-09-23T18:12:13.192Z,23.86
2018-09-23T18:14:40.913Z,23.86
2018-09-23T18:17:08.569Z,23.86
2018-09-23T18:19:36.266Z,23.86
2018-09-23T18:22:04.020Z,23.86
2018-09-23T18:24:31.644Z,23.84
2018-09-23T18:26:59.552Z,23.83
2018-09-23T18:29:27.369Z,23.83
2018-09-23T18:31:55.334Z,23.84
2018-09-23T18:34:23.262Z,23.83
2018-09-23T18:36:51.290Z,23.81
2018-09-23T18:39:19.295Z,23.82
2018-09-23T18:41:47.162Z,23.84
2018-09-23T18:44:14.983Z,23.86
2018-09-23T18:46:42.816Z,23.85
2018-09-23T18:49:10.718Z,23.86
2018-09-23T18:51:38.529Z,23.87
2018-09-23T18:54:11.607Z,23.85
2018-09-23T18:56:39.523Z,23.82
2018-09-23T18:59:07.251Z,23.81
2018-09-23T19:01:35.173Z,23.80
2018-09-23T19:04:03.057Z,23.80
2018-09-23T19:06:30.785Z,23.79
2018-09-23T19:08:58.677Z,23.79
2018-09-23T19:11:26.447Z,23.80
2018-09-23T19:13:54.913Z,23.81
2018-09-23T19:16:28.041Z,23.81
2018-09-23T19:18:56.996Z,23.83
2018-09-23T19:21:25.387Z,23.83
2018-09-23T19:24:27.632Z,23.81
2018-09-23T19:26:55.529Z,23.80
2018-09-23T19:29:23.303Z,23.80
2018-09-23T19:32:02.746Z,23.85
2018-09-23T19:34:30.467Z,23.85
2018-09-23T19:36:58.197Z,23.83
2018-09-23T19:39:25.961Z,23.84
2018-09-23T19:41:53.836Z,23.85
2018-09-23T19:44:21.673Z,23.81
2018-09-23T19:46:49.686Z,23.81
2018-09-23T19:49:17.516Z,23.79
2018-09-23T19:51:45.465Z,23.81
2018-09-23T19:54:13.376Z,23.79
2018-09-23T19:56:41.204Z,23.79
2018-09-23T19:59:08.998Z,23.81
2018-09-23T20:01:36.819Z,23.79
2018-09-23T20:04:04.540Z,23.80
2018-09-23T20:06:32.398Z,23.80
2018-09-23T20:09:00.222Z,23.78
2018-09-23T20:11:28.004Z,23.79
2018-09-23T20:13:55.729Z,23.79
2018-09-23T20:16:23.474Z,23.78
2018-09-23T20:18:51.217Z,23.79
2018-09-23T20:21:18.943Z,23.77
2018-09-23T20:23:46.774Z,23.78
2018-09-23T20:26:14.588Z,23.81
2018-09-23T20:28:42.496Z,23.82
2018-09-23T20:31:10.464Z,23.83
2018-09-23T20:33:38.365Z,23.44
2018-09-23T20:36:06.235Z,23.78
2018-09-23T20:38:34.008Z,23.80
2018-09-23T20:41:01.769Z,23.82
2018-09-23T20:43:30.683Z,23.80
2018-09-23T20:45:58.841Z,23.79
2018-09-23T20:51:02.245Z,23.77
2018-09-23T20:53:30.173Z,23.78
2018-09-23T20:55:59.466Z,23.79
2018-09-23T20:58:32.989Z,23.77
2018-09-23T21:01:00.940Z,23.78
2018-09-23T21:03:28.713Z,23.77
2018-09-23T21:05:56.604Z,23.79
2018-09-23T21:08:24.500Z,23.79
2018-09-23T21:10:52.346Z,23.79
2018-09-23T21:13:20.160Z,23.81
2018-09-23T21:15:48.085Z,23.80
2018-09-23T21:18:16.170Z,23.80
2018-09-23T21:20:44.091Z,23.79
2018-09-23T21:23:12.827Z,23.79
2018-09-23T21:25:40.769Z,23.77
2018-09-23T21:28:08.815Z,23.76
2018-09-23T21:33:10.757Z,23.75
2018-09-23T21:35:38.559Z,23.76
2018-09-23T21:38:08.446Z,23.75
2018-09-23T21:40:36.315Z,23.75
2018-09-23T21:43:04.233Z,23.73
2018-09-23T21:45:33.051Z,23.73
2018-09-23T21:48:00.950Z,23.75
2018-09-23T21:50:28.917Z,23.72
2018-09-23T21:52:56.955Z,23.72
2018-09-23T21:55:24.751Z,23.70
2018-09-23T21:57:52.655Z,23.72
2018-09-23T22:00:20.689Z,23.71
2018-09-23T22:02:48.431Z,23.71
2018-09-23T22:05:16.400Z,23.71
2018-09-23T22:07:44.478Z,23.71
2018-09-23T22:10:12.489Z,23.70
2018-09-23T22:12:40.442Z,23.71
2018-09-23T22:15:12.456Z,23.70
2018-09-23T22:17:40.424Z,23.71
2018-09-23T22:20:14.426Z,23.73
2018-09-23T22:22:42.366Z,23.72
2018-09-23T22:25:11.050Z,23.70
2018-09-23T22:27:38.966Z,23.68
2018-09-23T22:30:07.236Z,23.70
2018-09-23T22:32:34.965Z,23.69
2018-09-23T22:35:03.001Z,23.70
2018-09-23T22:37:30.750Z,23.69
2018-09-23T22:39:58.601Z,23.69
2018-09-23T22:42:26.303Z,23.69
2018-09-23T22:44:54.043Z,23.68
2018-09-23T22:47:21.835Z,23.68
2018-09-23T22:49:49.546Z,23.69
2018-09-23T22:52:17.350Z,23.69
2018-09-23T22:54:45.096Z,23.68
2018-09-23T22:57:12.921Z,23.70
2018-09-23T22:59:40.627Z,23.68
2018-09-23T23:02:08.428Z,23.68
2018-09-23T23:04:36.150Z,23.69
2018-09-23T23:07:03.956Z,23.69
2018-09-23T23:09:31.627Z,23.67
2018-09-23T23:11:59.348Z,23.68
2018-09-23T23:14:27.038Z,23.67
2018-09-23T23:16:54.780Z,23.67
2018-09-23T23:19:22.671Z,23.67
2018-09-23T23:21:50.409Z,23.66
2018-09-23T23:24:18.102Z,23.67
2018-09-23T23:26:45.799Z,23.66
2018-09-23T23:29:13.593Z,23.66
2018-09-23T23:31:41.341Z,23.65
2018-09-23T23:34:09.048Z,23.66
2018-09-23T23:36:36.812Z,23.65
2018-09-23T23:39:06.109Z,23.65
2018-09-23T23:41:33.772Z,23.64
2018-09-23T23:44:01.451Z,23.63
2018-09-23T23:46:29.106Z,23.65
2018-09-23T23:48:56.813Z,23.64
2018-09-23T23:51:24.629Z,23.64
2018-09-23T23:53:52.290Z,23.63
2018-09-23T23:56:19.980Z,23.62
2018-09-23T23:58:47.754Z,23.62
